createdAt,value
2023-02-04T00:00:02.966Z,1017.5
2023-02-04T00:01:19.159Z,1017.5
2023-02-04T00:02:35.352Z,1017.6
2023-02-04T00:03:33.546Z,1017.6
2023-02-04T00:05:07.000Z,1017.6
2023-02-04T00:06:23.924Z,1017.7
2023-02-04T00:07:40.127Z,1017.8
2023-02-04T00:08:38.321Z,1017.8
2023-02-04T00:10:12.514Z,1017.9
2023-02-04T00:11:28.698Z,1018
2023-02-04T00:12:25.918Z,1017.9
2023-02-04T00:14:00.111Z,1017.9
2023-02-04T00:15:16.000Z,1018.1
2023-02-04T00:16:14.499Z,1018
2023-02-04T00:17:48.692Z,1018.2
2023-02-04T00:19:04.000Z,1018.2
2023-02-04T00:20:21.080Z,1018.3
2023-02-04T00:21:36.301Z,1018.2
2023-02-04T00:22:52.495Z,1018.2
2023-02-04T00:23:50.689Z,1018.3
2023-02-04T00:25:24.882Z,1018.3
2023-02-04T00:26:41.000Z,1018.4
2023-02-04T00:27:57.000Z,1018.4
2023-02-04T00:28:54.492Z,1018.4
2023-02-04T00:30:28.000Z,1018.6
2023-02-04T00:31:26.879Z,1018.6
2023-02-04T00:33:01.000Z,1018.8
2023-02-04T00:34:17.266Z,1018.8
2023-02-04T00:35:33.000Z,1018.7
2023-02-04T00:36:31.655Z,1018.8
2023-02-04T00:38:05.848Z,1018.9
2023-02-04T00:39:22.000Z,1019
2023-02-04T00:40:38.235Z,1019
2023-02-04T00:41:36.429Z,1019.1
2023-02-04T00:43:24.000Z,1019.1
2023-02-04T00:44:25.000Z,1019.2
2023-02-04T00:45:42.000Z,1019.2
2023-02-04T00:46:40.217Z,1019.2
2023-02-04T00:48:14.000Z,1019.3
2023-02-04T00:49:12.604Z,1019.4
2023-02-04T00:50:46.000Z,1019.5
2023-02-04T00:52:02.991Z,1019.6
2023-02-04T00:53:19.185Z,1019.5
2023-02-04T00:54:17.379Z,1019.7
2023-02-04T00:55:51.572Z,1019.7
2023-02-04T00:57:07.758Z,1019.8
2023-02-04T00:58:23.000Z,1019.8
2023-02-04T00:59:40.153Z,1019.9
2023-02-04T01:01:10.000Z,1019.8
2023-02-04T01:01:54.541Z,1019.9
2023-02-04T01:03:28.735Z,1020.1
2023-02-04T01:04:44.928Z,1020.1
2023-02-04T01:06:01.122Z,1020.2
2023-02-04T01:06:59.316Z,1020.2
2023-02-04T01:08:33.000Z,1020.3
2023-02-04T01:09:31.703Z,1020.2
2023-02-04T01:11:05.897Z,1020.3
2023-02-04T01:12:35.000Z,1020.3
2023-02-04T01:13:52.000Z,1020.4
2023-02-04T01:14:36.478Z,1020.4
2023-02-04T01:16:10.000Z,1020.4
2023-02-04T01:17:26.866Z,1020.6
2023-02-04T01:18:43.059Z,1020.5
2023-02-04T01:19:41.253Z,1020.5
2023-02-04T01:21:15.435Z,1020.6
2023-02-04T01:22:45.000Z,1020.6
2023-02-04T01:24:01.000Z,1020.6
2023-02-04T01:24:45.056Z,1020.6
2023-02-04T01:26:19.250Z,1020.7
2023-02-04T01:27:17.444Z,1020.8
2023-02-04T01:29:05.000Z,1020.8
2023-02-04T01:30:06.860Z,1020.9
2023-02-04T01:31:23.054Z,1020.9
2023-02-04T01:32:53.000Z,1020.9
2023-02-04T01:33:55.441Z,1021
2023-02-04T01:35:11.000Z,1021.1
2023-02-04T01:36:27.000Z,1021.1
2023-02-04T01:37:26.023Z,1021
2023-02-04T01:39:00.000Z,1021.1
2023-02-04T01:39:58.410Z,1021.1
2023-02-04T01:41:32.604Z,1021.2
2023-02-04T01:42:48.798Z,1021.1
2023-02-04T01:44:04.995Z,1021.1
2023-02-04T01:45:03.185Z,1021.2
2023-02-04T01:46:37.379Z,1021.3
2023-02-04T01:47:53.000Z,1021.4
2023-02-04T01:49:09.000Z,1021.3
2023-02-04T01:50:39.000Z,1021.4
2023-02-04T01:51:42.000Z,1021.4
2023-02-04T01:52:40.348Z,1021.4
2023-02-04T01:54:28.000Z,1021.4
2023-02-04T01:55:30.735Z,1021.4
2023-02-04T01:56:46.929Z,1021.5
2023-02-04T01:57:45.123Z,1021.6
2023-02-04T01:59:19.000Z,1021.6
2023-02-04T02:00:34.000Z,1021.7
2023-02-04T02:01:50.733Z,1021.8
2023-02-04T02:03:06.927Z,1021.9
2023-02-04T02:04:23.120Z,1021.9
2023-02-04T02:05:21.314Z,1022
2023-02-04T02:06:55.000Z,1021.9
2023-02-04T02:08:11.702Z,1022
2023-02-04T02:09:41.000Z,1022.1
2023-02-04T02:10:26.089Z,1022.1
2023-02-04T02:12:00.284Z,1022.1
2023-02-04T02:13:16.478Z,1022.2
2023-02-04T02:14:32.671Z,1022.1
2023-02-04T02:15:48.000Z,1022.2
2023-02-04T02:16:47.059Z,1022.2
2023-02-04T02:18:21.253Z,1022.2
2023-02-04T02:19:37.446Z,1022.3
2023-02-04T02:20:53.640Z,1022.4
2023-02-04T02:22:09.838Z,1022.3
2023-02-04T02:23:25.000Z,1022.4
2023-02-04T02:24:55.000Z,1022.5
2023-02-04T02:25:57.429Z,1022.5
2023-02-04T02:27:13.623Z,1022.4
2023-02-04T02:28:29.817Z,1022.5
2023-02-04T02:29:46.009Z,1022.5
2023-02-04T02:30:44.204Z,1022.5
2023-02-04T02:32:18.000Z,1022.7
2023-02-04T02:33:34.592Z,1022.7
2023-02-04T02:34:50.785Z,1022.7
2023-02-04T02:36:20.000Z,1022.6
2023-02-04T02:37:05.173Z,1022.7
2023-02-04T02:38:39.367Z,1022.8
2023-02-04T02:39:55.000Z,1022.9
2023-02-04T02:41:11.754Z,1022.9
2023-02-04T02:42:27.948Z,1022.9
2023-02-04T02:43:26.141Z,1022.8
2023-02-04T02:45:00.000Z,1022.9
2023-02-04T02:46:16.529Z,1022.9
2023-02-04T02:47:32.000Z,1023
2023-02-04T02:48:30.916Z,1022.9
2023-02-04T02:50:05.000Z,1023
2023-02-04T02:51:03.303Z,1023.1
2023-02-04T02:52:37.000Z,1023.1
2023-02-04T02:54:06.000Z,1023.1
2023-02-04T02:55:22.000Z,1023.3
2023-02-04T02:56:07.107Z,1023.3
2023-02-04T02:57:41.000Z,1023.3
2023-02-04T02:58:57.495Z,1023.3
2023-02-04T02:59:55.688Z,1023.4
2023-02-04T03:01:10.895Z,1023.4
2023-02-04T03:02:45.000Z,1023.3
2023-02-04T03:04:01.000Z,1023.4
2023-02-04T03:05:17.000Z,1023.4
2023-02-04T03:06:33.670Z,1023.5
2023-02-04T03:07:49.000Z,1023.6
2023-02-04T03:08:48.058Z,1023.5
2023-02-04T03:10:22.000Z,1023.6
2023-02-04T03:11:38.445Z,1023.6
2023-02-04T03:12:54.639Z,1023.6
2023-02-04T03:13:52.833Z,1023.6
2023-02-04T03:15:27.000Z,1023.6
2023-02-04T03:16:25.220Z,1023.6
2023-02-04T03:17:41.413Z,1023.6
2023-02-04T03:19:15.607Z,1023.6
2023-02-04T03:20:31.801Z,1023.6
2023-02-04T03:21:47.995Z,1023.7
2023-02-04T03:22:46.189Z,1023.9
2023-02-04T03:24:20.382Z,1023.9
2023-02-04T03:25:36.576Z,1023.8
2023-02-04T03:26:52.000Z,1023.9
2023-02-04T03:28:08.000Z,1024
2023-02-04T03:29:07.157Z,1024.1
2023-02-04T03:30:55.000Z,1024.2
2023-02-04T03:32:11.000Z,1024.2
2023-02-04T03:33:13.000Z,1024.3
2023-02-04T03:34:29.932Z,1024.3
2023-02-04T03:35:46.125Z,1024.3
2023-02-04T03:37:02.319Z,1024.3
2023-02-04T03:38:18.000Z,1024.3
2023-02-04T03:39:47.000Z,1024.3
2023-02-04T03:40:49.000Z,1024.4
2023-02-04T03:42:06.000Z,1024.4
2023-02-04T03:43:22.000Z,1024.4
2023-02-04T03:44:38.000Z,1024.6
2023-02-04T03:45:36.703Z,1024.6
2023-02-04T03:46:52.897Z,1024.6
2023-02-04T03:48:40.000Z,1024.7
2023-02-04T03:49:43.285Z,1024.7
2023-02-04T03:50:59.000Z,1024.8
2023-02-04T03:51:57.673Z,1024.8
2023-02-04T03:53:31.000Z,1024.9
2023-02-04T03:54:47.000Z,1024.9
2023-02-04T03:56:03.000Z,1024.9
2023-02-04T03:57:19.457Z,1025.1
2023-02-04T03:58:35.000Z,1025.1
2023-02-04T03:59:33.848Z,1025.1
2023-02-04T04:00:50.041Z,1025.1
2023-02-04T04:02:24.000Z,1025.1
2023-02-04T04:03:40.000Z,1025.3
2023-02-04T04:04:56.622Z,1025.2
2023-02-04T04:06:12.000Z,1025.2
2023-02-04T04:07:11.010Z,1025.3
2023-02-04T04:08:27.203Z,1025.3
2023-02-04T04:09:43.397Z,1025.4
2023-02-04T04:11:17.590Z,1025.3
2023-02-04T04:12:47.000Z,1025.4
2023-02-04T04:13:49.000Z,1025.4
2023-02-04T04:15:06.000Z,1025.4
2023-02-04T04:16:22.000Z,1025.3
2023-02-04T04:17:20.558Z,1025.4
2023-02-04T04:19:08.000Z,1025.5
2023-02-04T04:20:10.000Z,1025.4
2023-02-04T04:21:27.000Z,1025.5
2023-02-04T04:22:43.333Z,1025.5
2023-02-04T04:23:59.532Z,1025.6
2023-02-04T04:24:56.754Z,1025.6
2023-02-04T04:26:30.000Z,1025.7
2023-02-04T04:27:47.141Z,1025.7
2023-02-04T04:29:03.334Z,1025.7
2023-02-04T04:30:01.528Z,1025.7
2023-02-04T04:31:35.724Z,1025.8
2023-02-04T04:32:50.000Z,1025.8
2023-02-04T04:34:07.000Z,1025.7
2023-02-04T04:35:23.000Z,1025.8
2023-02-04T04:36:39.000Z,1025.9
2023-02-04T04:37:37.706Z,1025.9
2023-02-04T04:39:25.000Z,1026
2023-02-04T04:40:28.093Z,1026
2023-02-04T04:41:44.287Z,1026.1
2023-02-04T04:42:42.481Z,1026
2023-02-04T04:44:16.000Z,1026
2023-02-04T04:45:14.868Z,1026.1
2023-02-04T04:46:49.000Z,1026.1
2023-02-04T04:48:05.255Z,1026.2
2023-02-04T04:49:03.449Z,1026.2
2023-02-04T04:50:19.643Z,1026.3
2023-02-04T04:51:53.836Z,1026.3
2023-02-04T04:53:10.030Z,1026.3
2023-02-04T04:54:26.000Z,1026.4
2023-02-04T04:55:24.417Z,1026.5
2023-02-04T04:56:58.000Z,1026.5
2023-02-04T04:58:14.804Z,1026.5
2023-02-04T04:59:31.000Z,1026.5
2023-02-04T05:00:47.186Z,1026.5
2023-02-04T05:02:17.000Z,1026.6
2023-02-04T05:03:00.591Z,1026.6
2023-02-04T05:04:34.000Z,1026.7
2023-02-04T05:05:50.980Z,1026.7
2023-02-04T05:07:07.000Z,1026.8
2023-02-04T05:08:37.000Z,1026.8
2023-02-04T05:09:39.560Z,1026.8
2023-02-04T05:10:55.000Z,1026.8
2023-02-04T05:12:11.000Z,1026.8
2023-02-04T05:13:28.000Z,1026.8
2023-02-04T05:14:44.335Z,1026.8
2023-02-04T05:15:42.529Z,1026.8
2023-02-04T05:17:16.723Z,1026.9
2023-02-04T05:18:32.916Z,1026.9
2023-02-04T05:19:49.000Z,1026.9
2023-02-04T05:21:05.303Z,1026.9
2023-02-04T05:22:21.496Z,1026.9
2023-02-04T05:23:37.683Z,1027
2023-02-04T05:24:53.000Z,1027
2023-02-04T05:26:09.000Z,1027
2023-02-04T05:27:39.000Z,1027.1
2023-02-04T05:28:23.478Z,1027.1
2023-02-04T05:29:57.671Z,1027.3
2023-02-04T05:31:13.864Z,1027.3
2023-02-04T05:32:30.000Z,1027.2
2023-02-04T05:33:28.251Z,1027.4
2023-02-04T05:35:02.445Z,1027.3
2023-02-04T05:36:00.639Z,1027.4
2023-02-04T05:37:34.000Z,1027.4
2023-02-04T05:38:51.028Z,1027.4
2023-02-04T05:40:07.000Z,1027.4
2023-02-04T05:41:05.417Z,1027.5
2023-02-04T05:42:39.000Z,1027.5
2023-02-04T05:43:55.806Z,1027.5
2023-02-04T05:45:12.000Z,1027.5
2023-02-04T05:46:10.196Z,1027.6
2023-02-04T05:47:44.397Z,1027.7
2023-02-04T05:48:42.585Z,1027.6
2023-02-04T05:50:16.781Z,1027.6
2023-02-04T05:51:46.000Z,1027.6
2023-02-04T05:52:49.171Z,1027.7
2023-02-04T05:53:47.365Z,1027.8
2023-02-04T05:55:21.565Z,1027.8
2023-02-04T05:56:36.769Z,1027.8
2023-02-04T05:57:52.000Z,1027.9
2023-02-04T05:59:23.000Z,1027.9
2023-02-04T06:00:25.356Z,1027.8
2023-02-04T06:01:23.551Z,1027.8
2023-02-04T06:02:57.745Z,1027.8
2023-02-04T06:04:13.942Z,1027.9
2023-02-04T06:05:30.138Z,1027.9
2023-02-04T06:06:46.000Z,1028
2023-02-04T06:08:02.529Z,1028
2023-02-04T06:09:18.724Z,1028.1
2023-02-04T06:10:34.924Z,1028.1
2023-02-04T06:11:51.000Z,1028.1
2023-02-04T06:13:07.310Z,1028.2
2023-02-04T06:14:23.000Z,1028.2
2023-02-04T06:15:39.000Z,1028.3
2023-02-04T06:16:37.897Z,1028.3
2023-02-04T06:18:12.092Z,1028.2
2023-02-04T06:19:10.288Z,1028.4
2023-02-04T06:20:44.483Z,1028.3
2023-02-04T06:22:00.678Z,1028.4
2023-02-04T06:23:16.000Z,1028.4
2023-02-04T06:24:15.069Z,1028.4
2023-02-04T06:25:31.265Z,1028.4
2023-02-04T06:27:05.000Z,1028.4
2023-02-04T06:28:35.000Z,1028.4
2023-02-04T06:29:37.851Z,1028.5
2023-02-04T06:30:54.000Z,1028.5
2023-02-04T06:31:52.242Z,1028.5
2023-02-04T06:33:26.434Z,1028.6
2023-02-04T06:34:42.633Z,1028.6
2023-02-04T06:35:58.829Z,1028.6
2023-02-04T06:36:57.024Z,1028.6
2023-02-04T06:38:31.220Z,1028.6
2023-02-04T06:39:29.415Z,1028.7
2023-02-04T06:41:03.000Z,1028.7
2023-02-04T06:42:33.000Z,1028.7
2023-02-04T06:43:36.000Z,1028.8
2023-02-04T06:44:34.311Z,1028.7
2023-02-04T06:46:08.559Z,1028.7
2023-02-04T06:47:23.829Z,1028.7
2023-02-04T06:48:40.025Z,1028.8
2023-02-04T06:49:56.220Z,1028.7
2023-02-04T06:50:54.416Z,1028.7
2023-02-04T06:52:28.000Z,1028.8
2023-02-04T06:53:26.806Z,1028.7
2023-02-04T06:55:01.002Z,1028.8
2023-02-04T06:56:17.197Z,1028.7
2023-02-04T06:57:33.000Z,1028.7
2023-02-04T06:58:31.588Z,1028.7
2023-02-04T07:00:05.796Z,1028.7
2023-02-04T07:01:21.979Z,1028.7
2023-02-04T07:02:52.000Z,1028.7
2023-02-04T07:03:54.000Z,1028.6
2023-02-04T07:05:10.000Z,1028.8
2023-02-04T07:06:26.000Z,1028.7
2023-02-04T07:07:42.966Z,1028.8
2023-02-04T07:09:13.000Z,1028.7
2023-02-04T07:10:15.000Z,1028.7
2023-02-04T07:11:13.543Z,1028.7
2023-02-04T07:12:47.000Z,1028.7
2023-02-04T07:14:03.934Z,1028.7
2023-02-04T07:15:20.000Z,1028.8
2023-02-04T07:16:18.325Z,1028.7
2023-02-04T07:17:52.520Z,1028.7
2023-02-04T07:19:08.000Z,1028.8
2023-02-04T07:20:25.035Z,1028.9
2023-02-04T07:21:40.293Z,1028.8
2023-02-04T07:22:56.489Z,1029
2023-02-04T07:23:54.685Z,1028.9
2023-02-04T07:25:28.000Z,1029
2023-02-04T07:26:45.075Z,1029.1
2023-02-04T07:28:01.272Z,1029
2023-02-04T07:28:59.466Z,1029.1
2023-02-04T07:30:33.000Z,1029.1
2023-02-04T07:31:49.857Z,1029.2
2023-02-04T07:33:06.053Z,1029.2
2023-02-04T07:34:36.000Z,1029.2
2023-02-04T07:35:38.000Z,1029.1
2023-02-04T07:36:35.652Z,1029.3
2023-02-04T07:38:23.000Z,1029.2
2023-02-04T07:40:42.000Z,1029.3
2023-02-04T07:41:58.000Z,1029.3
2023-02-04T07:43:14.000Z,1029.3
2023-02-04T07:44:12.825Z,1029.4
2023-02-04T07:45:47.021Z,1029.4
2023-02-04T07:46:45.217Z,1029.5
2023-02-04T07:48:19.000Z,1029.4
2023-02-04T07:49:17.608Z,1029.5
2023-02-04T07:50:51.807Z,1029.5
2023-02-04T07:52:07.999Z,1029.5
2023-02-04T07:53:38.000Z,1029.6
2023-02-04T07:54:40.000Z,1029.6
2023-02-04T07:55:56.000Z,1029.6
2023-02-04T07:56:54.781Z,1029.6
2023-02-04T07:58:42.000Z,1029.6
2023-02-04T07:59:44.200Z,1029.6
2023-02-04T08:01:00.396Z,1029.7
2023-02-04T08:02:30.000Z,1029.7
2023-02-04T08:03:32.000Z,1029.8
2023-02-04T08:04:48.983Z,1029.7
2023-02-04T08:06:05.179Z,1029.8
2023-02-04T08:07:03.374Z,1029.8
2023-02-04T08:08:37.570Z,1029.8
2023-02-04T08:09:35.765Z,1029.9
2023-02-04T08:11:09.961Z,1029.9
2023-02-04T08:12:26.156Z,1029.9
2023-02-04T08:13:42.352Z,1029.9
2023-02-04T08:14:58.547Z,1030
2023-02-04T08:16:14.743Z,1030.1
2023-02-04T08:17:30.939Z,1030
2023-02-04T08:18:47.135Z,1030
2023-02-04T08:19:45.330Z,1030
2023-02-04T08:21:19.000Z,1030.1
2023-02-04T08:22:35.722Z,1030
2023-02-04T08:23:51.918Z,1030.1
2023-02-04T08:25:08.113Z,1030.1
2023-02-04T08:26:24.309Z,1030.2
2023-02-04T08:27:22.505Z,1030.2
2023-02-04T08:28:56.000Z,1030.3
2023-02-04T08:30:12.896Z,1030.3
2023-02-04T08:31:29.000Z,1030.2
2023-02-04T08:32:27.402Z,1030.3
2023-02-04T08:34:01.657Z,1030.3
2023-02-04T08:35:17.908Z,1030.3
2023-02-04T08:36:34.158Z,1030.3
2023-02-04T08:37:50.000Z,1030.3
2023-02-04T08:39:20.000Z,1030.3
2023-02-04T08:40:36.000Z,1030.2
2023-02-04T08:41:39.174Z,1030.2
2023-02-04T08:42:55.000Z,1030.2
2023-02-04T08:43:53.675Z,1030.3
2023-02-04T08:45:27.928Z,1030.2
2023-02-04T08:46:44.000Z,1030.3
2023-02-04T08:48:00.537Z,1030.3
2023-02-04T08:49:16.897Z,1030.4
2023-02-04T08:50:33.000Z,1030.3
2023-02-04T08:51:49.000Z,1030.3
2023-02-04T08:53:05.961Z,1030.3
2023-02-04T08:54:03.323Z,1030.3
2023-02-04T08:55:19.519Z,1030.4
2023-02-04T08:56:35.714Z,1030.4
2023-02-04T08:58:09.910Z,1030.5
2023-02-04T08:59:08.106Z,1030.5
2023-02-04T09:00:42.000Z,1030.5
2023-02-04T09:01:40.497Z,1030.4
2023-02-04T09:03:14.693Z,1030.4
2023-02-04T09:04:30.889Z,1030.5
2023-02-04T09:05:47.085Z,1030.5
2023-02-04T09:07:03.000Z,1030.5
2023-02-04T09:08:19.000Z,1030.5
2023-02-04T09:09:16.685Z,1030.6
2023-02-04T09:10:32.881Z,1030.5
2023-02-04T09:11:49.076Z,1030.5
2023-02-04T09:13:23.000Z,1030.7
2023-02-04T09:14:53.000Z,1030.6
2023-02-04T09:15:55.000Z,1030.6
2023-02-04T09:17:11.859Z,1030.7
2023-02-04T09:18:28.055Z,1030.7
2023-02-04T09:19:26.251Z,1030.7
2023-02-04T09:21:00.447Z,1030.7
2023-02-04T09:22:16.000Z,1030.7
2023-02-04T09:23:32.838Z,1030.8
2023-02-04T09:24:31.033Z,1030.7
2023-02-04T09:26:05.229Z,1030.7
2023-02-04T09:27:03.425Z,1030.7
2023-02-04T09:28:37.621Z,1030.8
2023-02-04T09:29:53.816Z,1030.7
2023-02-04T09:31:10.012Z,1030.8
2023-02-04T09:32:08.207Z,1030.9
2023-02-04T09:33:42.403Z,1031
2023-02-04T09:34:40.598Z,1030.9
2023-02-04T09:36:14.000Z,1030.9
2023-02-04T09:37:44.000Z,1030.9
2023-02-04T09:39:01.000Z,1031
2023-02-04T09:40:17.000Z,1031.1
2023-02-04T09:41:33.000Z,1031
2023-02-04T09:43:51.967Z,1031.1
2023-02-04T09:45:08.162Z,1031.1
2023-02-04T09:46:24.000Z,1031.1
2023-02-04T09:47:22.553Z,1031.1
2023-02-04T09:49:10.000Z,1031.2
2023-02-04T09:49:54.944Z,1031.1
2023-02-04T09:51:29.000Z,1031.2
2023-02-04T09:52:27.335Z,1031.1
2023-02-04T09:54:01.000Z,1031.1
2023-02-04T09:56:46.000Z,1031.1
2023-02-04T09:57:49.000Z,1031.2
2023-02-04T09:59:05.000Z,1031.2
2023-02-04T10:00:03.535Z,1031.2
2023-02-04T10:01:19.731Z,1031.2
2023-02-04T10:02:53.926Z,1031.2
2023-02-04T10:04:10.123Z,1031.2
2023-02-04T10:05:08.317Z,1031.2
2023-02-04T10:07:58.708Z,1031.3
2023-02-04T10:09:14.000Z,1031.3
2023-02-04T10:10:44.000Z,1031.3
2023-02-04T10:11:46.323Z,1031.2
2023-02-04T10:12:44.518Z,1031.2
2023-02-04T10:14:18.715Z,1031.3
2023-02-04T10:15:34.909Z,1031.2
2023-02-04T10:16:51.000Z,1031.3
2023-02-04T10:18:07.300Z,1031.3
2023-02-04T10:19:23.496Z,1031.2
2023-02-04T10:20:39.690Z,1031.3
2023-02-04T10:21:55.887Z,1031.3
2023-02-04T10:22:54.082Z,1031.3
2023-02-04T10:24:28.000Z,1031.3
2023-02-04T10:25:25.501Z,1031.3
2023-02-04T10:27:13.000Z,1031.3
2023-02-04T10:28:29.000Z,1031.3
2023-02-04T10:29:32.087Z,1031.4
2023-02-04T10:30:30.282Z,1031.3
2023-02-04T10:31:46.477Z,1031.4
2023-02-04T10:33:20.673Z,1031.3
2023-02-04T10:34:50.000Z,1031.4
2023-02-04T10:35:35.063Z,1031.4
2023-02-04T10:37:09.000Z,1031.3
2023-02-04T10:38:07.453Z,1031.4
2023-02-04T10:39:41.000Z,1031.4
2023-02-04T10:40:57.843Z,1031.4
2023-02-04T10:42:14.039Z,1031.4
2023-02-04T10:43:12.235Z,1031.5
2023-02-04T10:44:46.431Z,1031.4
2023-02-04T10:46:02.626Z,1031.5
2023-02-04T10:47:18.000Z,1031.5
2023-02-04T10:48:35.000Z,1031.4
2023-02-04T10:49:51.211Z,1031.4
2023-02-04T10:50:49.406Z,1031.3
2023-02-04T10:52:23.000Z,1031.4
2023-02-04T10:53:39.796Z,1031.4
2023-02-04T10:54:56.000Z,1031.5
2023-02-04T10:56:12.185Z,1031.5
2023-02-04T10:57:28.440Z,1031.4
2023-02-04T10:58:44.691Z,1031.5
2023-02-04T11:00:00.000Z,1031.5
2023-02-04T11:01:30.000Z,1031.5
2023-02-04T11:02:14.405Z,1031.5
2023-02-04T11:03:48.601Z,1031.5
2023-02-04T11:04:46.795Z,1031.5
2023-02-04T11:06:20.991Z,1031.5
2023-02-04T11:07:37.185Z,1031.5
2023-02-04T11:09:07.000Z,1031.6
2023-02-04T11:10:09.575Z,1031.6
2023-02-04T11:11:25.771Z,1031.5
2023-02-04T11:12:41.966Z,1031.5
2023-02-04T11:14:12.000Z,1031.5
2023-02-04T11:14:55.370Z,1031.5
2023-02-04T11:16:43.000Z,1031.5
2023-02-04T11:17:27.760Z,1031.5
2023-02-04T11:19:01.956Z,1031.6
2023-02-04T11:20:00.150Z,1031.6
2023-02-04T11:21:34.346Z,1031.5
2023-02-04T11:22:32.541Z,1031.5
2023-02-04T11:23:48.736Z,1031.6
2023-02-04T11:25:22.931Z,1031.6
2023-02-04T11:26:39.127Z,1031.6
2023-02-04T11:27:37.323Z,1031.6
2023-02-04T11:29:25.000Z,1031.6
2023-02-04T11:30:27.713Z,1031.6
2023-02-04T11:31:57.000Z,1031.6
2023-02-04T11:33:00.103Z,1031.7
2023-02-04T11:34:16.299Z,1031.7
2023-02-04T11:35:14.493Z,1031.8
2023-02-04T11:36:48.000Z,1031.8
2023-02-04T11:38:04.885Z,1031.9
2023-02-04T11:39:21.080Z,1031.8
2023-02-04T11:40:51.000Z,1031.8
2023-02-04T11:41:53.470Z,1031.8
2023-02-04T11:43:09.665Z,1031.8
2023-02-04T11:44:25.860Z,1031.8
2023-02-04T11:45:24.055Z,1031.7
2023-02-04T11:46:58.000Z,1031.8
2023-02-04T11:47:56.447Z,1031.8
2023-02-04T11:49:30.642Z,1032
2023-02-04T11:50:46.838Z,1032
2023-02-04T11:52:03.000Z,1032
2023-02-04T11:53:01.228Z,1031.9
2023-02-04T11:54:49.000Z,1032
2023-02-04T11:55:32.647Z,1032
2023-02-04T11:57:06.843Z,1032.1
2023-02-04T11:58:37.000Z,1032
2023-02-04T11:59:39.000Z,1031.9
2023-02-04T12:00:37.427Z,1032
2023-02-04T12:02:25.000Z,1032
2023-02-04T12:03:27.817Z,1031.9
2023-02-04T12:04:44.013Z,1032
2023-02-04T12:05:42.207Z,1031.9
2023-02-04T12:07:30.000Z,1031.8
2023-02-04T12:08:31.611Z,1032
2023-02-04T12:09:29.807Z,1031.8
2023-02-04T12:10:46.002Z,1031.8
2023-02-04T12:12:20.197Z,1031.8
2023-02-04T12:13:18.392Z,1031.8
2023-02-04T12:14:52.000Z,1031.7
2023-02-04T12:16:08.782Z,1031.8
2023-02-04T12:17:24.977Z,1031.9
2023-02-04T12:18:55.000Z,1031.8
2023-02-04T12:19:57.000Z,1031.8
2023-02-04T12:20:55.563Z,1031.9
2023-02-04T12:22:29.000Z,1031.9
2023-02-04T12:23:27.953Z,1031.9
2023-02-04T12:25:02.148Z,1032
2023-02-04T12:26:32.000Z,1031.9
2023-02-04T12:27:34.538Z,1032
2023-02-04T12:28:50.733Z,1032
2023-02-04T12:30:06.929Z,1032
2023-02-04T12:31:23.124Z,1032.1
2023-02-04T12:32:21.319Z,1032
2023-02-04T12:33:37.514Z,1032.1
2023-02-04T12:35:11.000Z,1032.1
2023-02-04T12:36:27.904Z,1032
2023-02-04T12:37:44.099Z,1032.2
2023-02-04T12:38:41.323Z,1032.1
2023-02-04T12:40:15.518Z,1032
2023-02-04T12:41:31.714Z,1032.3
2023-02-04T12:42:47.000Z,1032
2023-02-04T12:44:18.000Z,1032.1
2023-02-04T12:45:20.299Z,1032.1
2023-02-04T12:46:18.494Z,1032.1
2023-02-04T12:48:06.000Z,1032.1
2023-02-04T12:49:21.000Z,1032
2023-02-04T12:50:24.000Z,1032
2023-02-04T12:51:40.304Z,1032
2023-02-04T12:52:56.500Z,1032
2023-02-04T12:54:11.709Z,1032
2023-02-04T12:55:27.904Z,1032.1
2023-02-04T12:56:26.099Z,1032.1
2023-02-04T12:58:00.294Z,1032.1
2023-02-04T12:59:16.000Z,1032.2
2023-02-04T13:00:14.685Z,1032.1
2023-02-04T13:01:30.880Z,1032.1
2023-02-04T13:03:05.000Z,1032.1
2023-02-04T13:04:03.271Z,1032.3
2023-02-04T13:05:37.466Z,1032.2
2023-02-04T13:06:53.661Z,1032.1
2023-02-04T13:08:09.856Z,1032.2
2023-02-04T13:09:08.052Z,1032.2
2023-02-04T13:10:42.247Z,1032.3
2023-02-04T13:11:40.443Z,1032.1
2023-02-04T13:13:14.000Z,1032.3
2023-02-04T13:14:12.834Z,1032.3
2023-02-04T13:15:29.030Z,1032.2
2023-02-04T13:16:44.258Z,1032.2
2023-02-04T13:18:00.454Z,1032.2
2023-02-04T13:19:34.650Z,1032.2
2023-02-04T13:20:50.845Z,1032.3
2023-02-04T13:21:49.040Z,1032.2
2023-02-04T13:23:23.235Z,1032.2
2023-02-04T13:24:20.444Z,1032.3
2023-02-04T13:25:54.640Z,1032.3
2023-02-04T13:26:52.835Z,1032.3
2023-02-04T13:28:27.031Z,1032.3
2023-02-04T13:29:43.225Z,1032.3
2023-02-04T13:30:59.000Z,1032.4
2023-02-04T13:32:15.616Z,1032.4
2023-02-04T13:33:31.000Z,1032.4
2023-02-04T13:34:30.007Z,1032.3
2023-02-04T13:36:04.202Z,1032.4
2023-02-04T13:37:20.000Z,1032.5
2023-02-04T13:38:18.593Z,1032.5
2023-02-04T13:39:34.789Z,1032.4
2023-02-04T13:41:08.000Z,1032.4
2023-02-04T13:42:07.180Z,1032.3
2023-02-04T13:43:41.000Z,1032.4
2023-02-04T13:44:57.571Z,1032.4
2023-02-04T13:45:55.766Z,1032.5
2023-02-04T13:47:43.000Z,1032.4
2023-02-04T13:48:46.157Z,1032.3
2023-02-04T13:49:44.352Z,1032.4
2023-02-04T13:51:18.548Z,1032.4
2023-02-04T13:52:34.758Z,1032.5
2023-02-04T13:53:50.000Z,1032.4
2023-02-04T13:55:07.132Z,1032.4
2023-02-04T13:56:37.000Z,1032.5
2023-02-04T13:57:39.523Z,1032.5
2023-02-04T13:58:55.000Z,1032.4
2023-02-04T13:59:53.913Z,1032.5
2023-02-04T14:01:28.000Z,1032.5
2023-02-04T14:02:44.000Z,1032.5
2023-02-04T14:04:14.000Z,1032.5
2023-02-04T14:04:58.693Z,1032.5
2023-02-04T14:06:32.889Z,1032.5
2023-02-04T14:07:31.084Z,1032.5
2023-02-04T14:08:47.280Z,1032.6
2023-02-04T14:10:21.474Z,1032.5
2023-02-04T14:11:37.000Z,1032.5
2023-02-04T14:12:35.979Z,1032.5
2023-02-04T14:14:09.246Z,1032.5
2023-02-04T14:15:39.000Z,1032.5
2023-02-04T14:16:23.636Z,1032.6
2023-02-04T14:17:57.831Z,1032.6
2023-02-04T14:19:14.036Z,1032.6
2023-02-04T14:20:30.240Z,1032.6
2023-02-04T14:21:28.417Z,1032.6
2023-02-04T14:23:02.000Z,1032.6
2023-02-04T14:24:18.808Z,1032.6
2023-02-04T14:25:35.000Z,1032.7
2023-02-04T14:26:33.199Z,1032.7
2023-02-04T14:27:49.394Z,1032.7
2023-02-04T14:29:23.589Z,1032.7
2023-02-04T14:30:39.000Z,1032.7
2023-02-04T14:32:09.000Z,1032.7
2023-02-04T14:33:12.175Z,1032.7
2023-02-04T14:34:10.370Z,1032.7
2023-02-04T14:35:44.000Z,1032.8
2023-02-04T14:37:00.000Z,1032.7
2023-02-04T14:38:16.955Z,1032.7
2023-02-04T14:39:15.152Z,1032.8
2023-02-04T14:40:49.000Z,1032.7
2023-02-04T14:42:05.000Z,1032.8
2023-02-04T14:43:21.000Z,1032.8
2023-02-04T14:44:37.000Z,1032.8
2023-02-04T14:45:54.000Z,1032.8
2023-02-04T14:46:52.439Z,1032.8
2023-02-04T14:48:25.000Z,1032.8
2023-02-04T14:49:40.000Z,1032.9
2023-02-04T14:52:13.000Z,1032.8
2023-02-04T14:53:29.000Z,1032.8
2023-02-04T14:54:45.709Z,1032.7
2023-02-04T14:55:43.891Z,1032.8
2023-02-04T14:57:18.087Z,1032.8
2023-02-04T14:58:34.281Z,1032.8
2023-02-04T14:59:50.477Z,1032.8
2023-02-04T15:00:48.672Z,1032.8
2023-02-04T15:02:22.868Z,1032.9
2023-02-04T15:03:39.063Z,1032.8
2023-02-04T15:05:09.000Z,1032.9
2023-02-04T15:05:53.453Z,1033
2023-02-04T15:07:27.000Z,1032.9
2023-02-04T15:08:43.843Z,1033
2023-02-04T15:10:00.038Z,1033
2023-02-04T15:11:16.236Z,1033.2
2023-02-04T15:12:46.000Z,1033.1
2023-02-04T15:13:29.632Z,1033.1
2023-02-04T15:15:03.825Z,1033.1
2023-02-04T15:17:36.212Z,1033.2
2023-02-04T15:18:34.405Z,1033.2
2023-02-04T15:19:50.598Z,1033.2
2023-02-04T15:21:06.791Z,1033.2
2023-02-04T15:22:40.000Z,1033.1
2023-02-04T15:23:57.178Z,1033.1
2023-02-04T15:25:13.000Z,1033.1
2023-02-04T15:26:11.564Z,1033.1
2023-02-04T15:27:44.786Z,1033.2
2023-02-04T15:29:00.980Z,1033.2
2023-02-04T15:30:17.000Z,1033.2
2023-02-04T15:31:33.000Z,1033.3
2023-02-04T15:33:03.000Z,1033.3
2023-02-04T15:33:47.753Z,1033.3
2023-02-04T15:35:21.947Z,1033.2
2023-02-04T15:36:20.140Z,1033.2
2023-02-04T15:37:54.333Z,1033.2
2023-02-04T15:39:24.000Z,1033.3
2023-02-04T15:40:26.720Z,1033.3
2023-02-04T15:41:42.914Z,1033.2
2023-02-04T15:42:59.107Z,1033.3
2023-02-04T15:44:15.301Z,1033.3
2023-02-04T15:45:31.495Z,1033.3
2023-02-04T15:46:29.689Z,1033.4
2023-02-04T15:48:03.890Z,1033.4
2023-02-04T15:49:01.089Z,1033.3
2023-02-04T15:50:35.284Z,1033.3
2023-02-04T15:51:51.477Z,1033.4
2023-02-04T15:53:07.671Z,1033.3
2023-02-04T15:55:40.000Z,1033.3
2023-02-04T15:56:38.251Z,1033.3
2023-02-04T15:58:26.000Z,1033.3
2023-02-04T15:59:10.638Z,1033.4
2023-02-04T16:00:44.000Z,1033.3
2023-02-04T16:02:01.026Z,1033.3
2023-02-04T16:03:31.000Z,1033.3